createdAt,value
2019-06-10T03:45:55.463Z,86.20
2019-06-10T03:48:25.596Z,86.20
2019-06-10T03:50:54.054Z,85.20
2019-06-10T03:53:24.344Z,84.80
2019-06-10T03:55:52.741Z,84.90
2019-06-10T03:58:22.065Z,85.10
2019-06-10T04:00:52.283Z,84.60
2019-06-10T04:03:23.816Z,84.20
2019-06-10T04:05:52.711Z,84.10
2019-06-10T04:08:22.411Z,83.90
2019-06-10T04:10:52.051Z,84.20
2019-06-10T04:13:23.653Z,84.80
2019-06-10T04:15:53.316Z,85.00
2019-06-10T04:18:22.516Z,85.70
2019-06-10T04:20:52.851Z,85.70
2019-06-10T04:23:23.813Z,85.60
2019-06-10T04:25:52.665Z,84.90
2019-06-10T04:28:24.064Z,85.00
2019-06-10T04:30:53.083Z,86.20
2019-06-10T04:33:23.288Z,85.70
2019-06-10T04:35:52.090Z,85.80
2019-06-10T04:38:22.961Z,85.70
2019-06-10T04:40:52.514Z,85.80
2019-06-10T04:43:23.416Z,86.40
2019-06-10T04:45:52.758Z,85.30
2019-06-10T04:48:23.558Z,84.60
2019-06-10T04:50:53.346Z,84.50
2019-06-10T04:53:23.757Z,84.40
2019-06-10T04:55:52.266Z,84.60
2019-06-10T04:58:23.337Z,84.30
2019-06-10T05:00:52.353Z,83.20
2019-06-10T05:03:23.419Z,82.50
2019-06-10T05:05:52.550Z,82.70
2019-06-10T05:08:23.525Z,82.90
2019-06-10T05:10:52.962Z,83.00
2019-06-10T05:13:23.810Z,82.90
2019-06-10T05:15:52.701Z,82.80
2019-06-10T05:18:23.845Z,82.40
2019-06-10T05:20:58.298Z,82.00
2019-06-10T05:23:22.499Z,82.50
2019-06-10T05:25:52.789Z,83.00
2019-06-10T05:28:23.011Z,84.00
2019-06-10T05:30:53.205Z,83.80
2019-06-10T05:33:23.097Z,83.60
2019-06-10T05:35:52.942Z,83.30
2019-06-10T05:38:24.000Z,83.00
2019-06-10T05:40:52.113Z,83.50
2019-06-10T05:43:22.301Z,83.40
2019-06-10T05:45:52.890Z,83.10
2019-06-10T05:48:22.645Z,82.80
2019-06-10T05:51:02.049Z,82.80
2019-06-10T05:53:23.095Z,83.20
2019-06-10T05:55:52.976Z,83.00
2019-06-10T05:58:23.524Z,83.00
2019-06-10T06:00:53.139Z,83.80
2019-06-10T06:03:22.981Z,83.30
2019-06-10T06:05:52.522Z,83.00
2019-06-10T06:08:22.797Z,83.00
2019-06-10T06:10:52.738Z,83.10
2019-06-10T06:13:23.214Z,83.40
2019-06-10T06:15:52.747Z,83.20
2019-06-10T06:18:22.601Z,82.80
2019-06-10T06:20:52.672Z,83.00
2019-06-10T06:23:23.146Z,82.80
2019-06-10T06:25:53.181Z,82.70
2019-06-10T06:28:22.955Z,82.80
2019-06-10T06:30:52.803Z,82.60
2019-06-10T06:33:22.156Z,82.90
2019-06-10T06:35:52.448Z,82.90
2019-06-10T06:38:22.451Z,83.00
2019-06-10T06:40:53.687Z,82.40
2019-06-10T06:43:22.199Z,82.00
2019-06-10T06:45:52.971Z,82.20
2019-06-10T06:48:22.722Z,81.90
2019-06-10T06:51:01.741Z,82.20
2019-06-10T06:53:32.410Z,82.00
2019-06-10T06:55:55.759Z,82.80
2019-06-10T06:58:23.169Z,82.10
2019-06-10T07:01:03.767Z,81.30
2019-06-10T07:03:23.016Z,80.40
2019-06-10T07:05:53.028Z,79.50
2019-06-10T07:08:23.138Z,78.90
2019-06-10T07:10:52.911Z,78.20
2019-06-10T07:13:22.217Z,77.90
2019-06-10T07:15:53.483Z,77.80
2019-06-10T07:18:23.228Z,78.20
2019-06-10T07:20:53.908Z,78.40
2019-06-10T07:23:22.510Z,78.20
2019-06-10T07:25:53.175Z,77.10
2019-06-10T07:28:23.030Z,77.40
2019-06-10T07:30:55.120Z,77.70
2019-06-10T07:33:22.662Z,78.60
2019-06-10T07:35:52.477Z,78.40
2019-06-10T07:38:23.080Z,77.80
2019-06-10T07:40:53.001Z,77.60
2019-06-10T07:43:23.145Z,77.40
2019-06-10T07:45:53.365Z,77.60
2019-06-10T07:48:22.254Z,77.70
2019-06-10T07:50:53.056Z,77.70
2019-06-10T07:53:22.258Z,78.20
2019-06-10T07:55:53.386Z,78.10
2019-06-10T07:58:22.477Z,77.80
2019-06-10T08:00:53.390Z,77.70
2019-06-10T08:03:22.576Z,77.80
2019-06-10T08:05:52.521Z,78.40
2019-06-10T08:08:23.405Z,77.70
2019-06-10T08:10:52.962Z,77.70
2019-06-10T08:13:22.654Z,78.20
2019-06-10T08:15:53.238Z,78.50
2019-06-10T08:18:22.529Z,78.50
2019-06-10T08:20:52.811Z,78.80
2019-06-10T08:23:23.608Z,78.00
2019-06-10T08:25:56.893Z,77.80
2019-06-10T08:28:23.329Z,76.00
2019-06-10T08:30:53.280Z,73.90
2019-06-10T08:33:22.758Z,73.20
2019-06-10T08:35:57.378Z,73.30
2019-06-10T08:38:23.106Z,72.70
2019-06-10T08:40:52.450Z,72.80
2019-06-10T08:43:22.973Z,71.40
2019-06-10T08:45:52.897Z,70.10
2019-06-10T08:48:23.288Z,67.90
2019-06-10T08:50:53.278Z,65.90
2019-06-10T08:53:22.807Z,64.60
2019-06-10T08:55:53.646Z,62.80
2019-06-10T08:58:22.610Z,64.80
2019-06-10T09:00:53.535Z,63.30
2019-06-10T09:03:23.355Z,61.40
2019-06-10T09:05:55.197Z,59.60
2019-06-10T09:08:24.457Z,59.70
2019-06-10T09:10:55.077Z,59.30
2019-06-10T09:13:23.146Z,57.80
2019-06-10T09:16:09.714Z,59.20
2019-06-10T09:18:23.335Z,59.90
2019-06-10T09:20:55.686Z,61.00
2019-06-10T09:23:25.423Z,62.20
2019-06-10T09:25:56.520Z,59.80
2019-06-10T09:28:23.608Z,60.70
2019-06-10T09:30:58.884Z,61.50
2019-06-10T09:33:24.106Z,63.60
2019-06-10T09:35:55.035Z,65.60
2019-06-10T09:38:23.184Z,66.80
2019-06-10T09:41:00.759Z,66.80
2019-06-10T09:43:24.245Z,67.70
2019-06-10T09:45:56.244Z,68.80
2019-06-10T09:48:25.226Z,68.90
2019-06-10T09:50:58.621Z,69.60
2019-06-10T09:53:33.461Z,69.10
2019-06-10T09:55:55.658Z,69.10
2019-06-10T09:58:24.302Z,67.40
2019-06-10T10:00:57.866Z,67.60
2019-06-10T10:03:26.322Z,67.80
2019-06-10T10:06:09.319Z,68.90
2019-06-10T10:08:25.804Z,68.40
2019-06-10T10:10:58.665Z,67.10
2019-06-10T10:13:24.898Z,69.10
2019-06-10T10:15:54.389Z,69.90
2019-06-10T10:18:23.579Z,70.60
2019-06-10T10:20:58.361Z,71.10
2019-06-10T10:23:22.806Z,71.90
2019-06-10T10:25:56.380Z,72.10
2019-06-10T10:28:25.035Z,72.10
2019-06-10T10:30:57.188Z,71.90
2019-06-10T10:33:26.888Z,71.60
2019-06-10T10:35:52.761Z,72.10
2019-06-10T10:38:23.128Z,73.20
2019-06-10T10:40:56.536Z,73.50
2019-06-10T10:43:28.868Z,73.80
2019-06-10T10:45:59.878Z,72.80
2019-06-10T10:48:23.557Z,72.60
2019-06-10T10:50:54.513Z,72.50
2019-06-10T10:53:23.849Z,73.30
2019-06-10T10:55:53.482Z,74.50
2019-06-10T10:58:22.920Z,73.80
2019-06-10T11:00:54.521Z,73.10
2019-06-10T11:03:22.826Z,73.90
2019-06-10T11:05:57.628Z,75.50
2019-06-10T11:08:22.939Z,76.10
2019-06-10T11:10:57.110Z,76.60
2019-06-10T11:13:25.762Z,77.20
2019-06-10T11:15:56.406Z,78.90
2019-06-10T11:18:24.786Z,79.40
2019-06-10T11:20:54.117Z,78.00
2019-06-10T11:23:23.028Z,77.70
2019-06-10T11:25:55.257Z,77.40
2019-06-10T11:28:22.810Z,75.80
2019-06-10T11:30:55.423Z,75.20
2019-06-10T11:33:22.897Z,76.00
2019-06-10T11:35:53.597Z,77.80
2019-06-10T11:38:23.433Z,77.80
2019-06-10T11:40:55.973Z,78.60
2019-06-10T11:43:23.543Z,78.20
2019-06-10T11:45:58.870Z,77.60
2019-06-10T11:48:23.789Z,77.10
2019-06-10T11:50:56.502Z,75.50
2019-06-10T11:53:23.018Z,75.60
2019-06-10T11:55:51.814Z,75.60
2019-06-10T11:58:22.482Z,75.50
2019-06-10T12:00:54.313Z,75.10
2019-06-10T12:03:22.993Z,76.50
2019-06-10T12:05:53.762Z,77.30
2019-06-10T12:08:23.702Z,78.10
2019-06-10T12:10:55.244Z,76.90
2019-06-10T12:13:22.608Z,78.00
2019-06-10T12:16:42.461Z,79.10
2019-06-10T12:18:22.972Z,78.00
2019-06-10T12:20:55.914Z,78.50
2019-06-10T12:23:22.252Z,80.20
2019-06-10T12:25:54.549Z,80.70
2019-06-10T12:28:21.111Z,79.80
2019-06-10T12:30:51.253Z,80.00
2019-06-10T12:33:24.787Z,80.40
2019-06-10T12:35:51.786Z,80.40
2019-06-10T12:38:22.755Z,80.00
2019-06-10T12:40:52.423Z,80.40
2019-06-10T12:43:22.924Z,80.50
2019-06-10T12:45:52.974Z,81.50
2019-06-10T12:48:22.260Z,81.70
2019-06-10T12:50:52.792Z,84.40
2019-06-10T12:53:22.885Z,84.20
2019-06-10T12:55:55.108Z,84.00
2019-06-10T12:58:22.650Z,85.70
2019-06-10T13:00:53.233Z,87.10
2019-06-10T13:03:23.762Z,88.40
2019-06-10T13:05:53.206Z,89.20
2019-06-10T13:08:23.830Z,90.00
2019-06-10T13:10:53.319Z,90.00
2019-06-10T13:13:22.702Z,89.70
2019-06-10T13:15:53.242Z,90.00
2019-06-10T13:18:23.890Z,89.80
2019-06-10T13:20:53.830Z,90.10
2019-06-10T13:23:30.567Z,90.40
2019-06-10T13:25:57.932Z,90.20
2019-06-10T13:28:22.902Z,89.90
2019-06-10T13:30:54.493Z,89.60
2019-06-10T13:33:22.887Z,88.90
2019-06-10T13:35:53.783Z,88.40
2019-06-10T13:38:25.407Z,88.30
2019-06-10T13:40:53.214Z,87.40
2019-06-10T13:43:23.116Z,88.00
2019-06-10T13:45:53.188Z,87.00
2019-06-10T13:48:25.700Z,86.70
2019-06-10T13:50:52.846Z,86.60
2019-06-10T13:53:21.627Z,86.90
2019-06-10T13:55:56.689Z,87.30
2019-06-10T13:58:23.033Z,86.90
2019-06-10T14:00:53.335Z,86.90
2019-06-10T14:03:22.729Z,86.40
2019-06-10T14:05:57.703Z,86.00
2019-06-10T14:08:23.241Z,85.30
2019-06-10T14:10:53.668Z,85.70
2019-06-10T14:13:23.630Z,86.40
2019-06-10T14:15:53.433Z,86.70
2019-06-10T14:18:23.129Z,86.10
2019-06-10T14:20:53.429Z,85.90
2019-06-10T14:23:23.308Z,86.00
2019-06-10T14:25:52.522Z,86.10
2019-06-10T14:28:38.038Z,84.00
2019-06-10T14:30:53.996Z,84.20
2019-06-10T14:33:23.228Z,82.40
2019-06-10T14:35:53.444Z,81.40
2019-06-10T14:38:22.405Z,81.00
2019-06-10T14:40:52.510Z,78.30
2019-06-10T14:43:23.258Z,75.70
2019-06-10T14:45:53.490Z,71.60
2019-06-10T14:48:23.380Z,73.50
2019-06-10T14:50:52.247Z,75.50
2019-06-10T14:53:22.877Z,74.10
2019-06-10T14:55:53.344Z,73.00
2019-06-10T14:58:23.196Z,74.20
2019-06-10T15:00:54.380Z,74.70
2019-06-10T15:03:26.160Z,72.30
2019-06-10T15:05:55.641Z,70.40
2019-06-10T15:08:24.176Z,70.80
2019-06-10T15:10:56.304Z,72.00
2019-06-10T15:13:25.043Z,73.80
2019-06-10T15:15:53.525Z,73.90
2019-06-10T15:18:23.563Z,74.20
2019-06-10T15:20:53.769Z,75.20
2019-06-10T15:23:23.506Z,76.00
2019-06-10T15:25:56.000Z,76.00
2019-06-10T15:28:23.508Z,75.90
2019-06-10T15:30:52.901Z,76.60
2019-06-10T15:33:23.715Z,77.00
2019-06-10T15:35:53.366Z,77.10
2019-06-10T15:38:25.720Z,77.90
2019-06-10T15:40:54.434Z,77.50
2019-06-10T15:43:23.642Z,76.50
2019-06-10T15:45:52.952Z,75.80
2019-06-10T15:48:25.020Z,76.60
2019-06-10T15:50:53.238Z,76.10
2019-06-10T15:53:25.824Z,77.10
2019-06-10T15:56:13.433Z,76.40
2019-06-10T15:58:28.992Z,73.90
2019-06-10T16:01:02.883Z,74.00
2019-06-10T16:03:34.533Z,74.00
2019-06-10T16:06:04.716Z,74.20
2019-06-10T16:08:34.243Z,74.00
2019-06-10T16:11:03.554Z,74.00
2019-06-10T16:13:32.383Z,73.00
2019-06-10T16:16:03.402Z,71.80
2019-06-10T16:18:32.975Z,72.20
2019-06-10T16:21:04.331Z,72.40
2019-06-10T16:23:33.881Z,73.30
2019-06-10T16:26:02.739Z,72.90
2019-06-10T16:28:32.853Z,73.00
2019-06-10T16:31:02.755Z,72.60
2019-06-10T16:33:33.391Z,72.50
2019-06-10T16:36:02.872Z,72.90
2019-06-10T16:38:35.250Z,73.30
2019-06-10T16:41:07.029Z,74.00
2019-06-10T16:43:35.277Z,74.40
2019-06-10T16:46:03.781Z,76.60
2019-06-10T16:48:33.442Z,76.80
2019-06-10T16:51:03.280Z,77.40
2019-06-10T16:53:35.506Z,77.60
2019-06-10T16:56:03.450Z,77.10
2019-06-10T16:58:33.412Z,78.20
2019-06-10T17:01:04.602Z,78.50
2019-06-10T17:03:35.193Z,79.30
2019-06-10T17:06:07.697Z,78.60
2019-06-10T17:08:47.850Z,79.30
2019-06-10T17:11:20.695Z,79.60
2019-06-10T17:13:52.668Z,78.80
2019-06-10T17:16:26.006Z,79.60
2019-06-10T17:18:57.198Z,79.40
2019-06-10T17:21:34.423Z,80.00
2019-06-10T17:24:03.421Z,80.10
2019-06-10T17:26:38.059Z,80.20
2019-06-10T17:29:08.241Z,81.20
2019-06-10T17:31:37.939Z,82.80
2019-06-10T17:34:17.820Z,82.00
2019-06-10T17:36:54.793Z,80.30
2019-06-10T17:39:28.607Z,80.60
2019-06-10T17:42:00.775Z,80.50
2019-06-10T17:44:33.907Z,81.00
2019-06-10T17:47:10.431Z,81.90
2019-06-10T17:49:43.046Z,83.10
2019-06-10T17:52:14.276Z,82.10
2019-06-10T17:54:45.443Z,82.30
2019-06-10T17:57:22.831Z,82.80
2019-06-10T17:59:57.013Z,83.00
2019-06-10T18:02:33.935Z,83.00
2019-06-10T18:05:12.648Z,84.10
2019-06-10T18:07:44.903Z,84.80
2019-06-10T18:10:17.663Z,85.80
2019-06-10T18:13:04.592Z,86.40
2019-06-10T18:15:35.402Z,86.00
2019-06-10T18:18:08.797Z,86.00
2019-06-10T18:20:43.473Z,85.90
2019-06-10T18:23:16.556Z,85.20
2019-06-10T18:25:52.708Z,84.90
2019-06-10T18:28:59.720Z,84.10
2019-06-10T18:31:18.387Z,84.60
2019-06-10T18:33:49.131Z,83.40
2019-06-10T18:36:24.428Z,83.80
2019-06-10T18:38:57.033Z,84.90
2019-06-10T18:41:31.515Z,86.00
2019-06-10T18:44:22.709Z,86.40
2019-06-10T18:46:47.710Z,85.70
2019-06-10T18:49:22.723Z,85.10
2019-06-10T18:51:57.913Z,83.30
2019-06-10T18:54:33.972Z,83.30
2019-06-10T18:57:04.425Z,82.90
2019-06-10T18:59:37.912Z,83.80
2019-06-10T19:02:13.260Z,84.60
2019-06-10T19:04:45.669Z,84.10
2019-06-10T19:07:17.215Z,84.60
2019-06-10T19:09:52.855Z,84.80
2019-06-10T19:12:25.172Z,85.00
2019-06-10T19:14:59.356Z,85.30
2019-06-10T19:17:34.892Z,84.80
2019-06-10T19:20:03.996Z,84.30
2019-06-10T19:22:37.923Z,84.50
2019-06-10T19:25:12.746Z,85.40
2019-06-10T19:27:48.332Z,85.40
2019-06-10T19:30:23.153Z,86.10
2019-06-10T19:32:58.557Z,84.30
2019-06-10T19:35:33.612Z,83.70
2019-06-10T19:38:06.932Z,83.90
2019-06-10T19:40:42.604Z,84.30
2019-06-10T19:43:14.090Z,84.40
2019-06-10T19:45:47.098Z,85.00
2019-06-10T19:48:19.693Z,84.60
2019-06-10T19:50:53.741Z,84.40
2019-06-10T19:53:27.289Z,84.40
2019-06-10T19:55:57.925Z,85.10
2019-06-10T19:58:29.088Z,85.30
2019-06-10T20:01:00.061Z,86.20
2019-06-10T20:03:32.940Z,86.20
2019-06-10T20:06:03.299Z,85.30
2019-06-10T20:08:34.623Z,86.00
2019-06-10T20:11:06.479Z,85.60
2019-06-10T20:13:43.663Z,85.30
2019-06-10T20:16:14.534Z,86.40
2019-06-10T20:18:49.287Z,85.30
2019-06-10T20:21:18.648Z,85.30
2019-06-10T20:23:48.323Z,85.00
2019-06-10T20:26:17.027Z,84.40
2019-06-10T20:28:48.705Z,84.90
2019-06-10T20:31:15.733Z,85.10
2019-06-10T20:33:44.217Z,85.70
2019-06-10T20:36:21.273Z,84.30
2019-06-10T20:38:46.602Z,81.60
2019-06-10T20:41:13.158Z,81.20
2019-06-10T20:43:43.863Z,82.00
2019-06-10T20:46:13.009Z,82.30
2019-06-10T20:48:45.179Z,80.20
2019-06-10T20:51:12.870Z,78.80
2019-06-10T20:53:45.914Z,77.50
2019-06-10T20:56:13.891Z,78.00
2019-06-10T20:58:49.619Z,78.30
2019-06-10T21:01:19.330Z,80.40
2019-06-10T21:03:49.895Z,81.70
2019-06-10T21:06:22.467Z,81.60
2019-06-10T21:08:53.288Z,80.80
2019-06-10T21:11:23.121Z,81.60
2019-06-10T21:13:53.105Z,80.70
2019-06-10T21:16:22.986Z,80.10
2019-06-10T21:18:55.512Z,81.20
2019-06-10T21:21:22.633Z,82.30
2019-06-10T21:23:53.914Z,81.20
2019-06-10T21:26:23.704Z,82.30
2019-06-10T21:28:54.936Z,83.40
2019-06-10T21:31:22.201Z,84.40
2019-06-10T21:33:51.781Z,85.00
2019-06-10T21:36:22.851Z,85.00
2019-06-10T21:38:55.309Z,84.80
2019-06-10T21:41:22.728Z,84.80
2019-06-10T21:43:57.555Z,85.30
2019-06-10T21:46:22.615Z,85.10
2019-06-10T21:48:53.216Z,85.30
2019-06-10T21:51:22.824Z,86.00
2019-06-10T21:53:53.744Z,86.50
2019-06-10T21:56:22.608Z,86.40
2019-06-10T21:58:53.645Z,84.50
2019-06-10T22:01:22.450Z,83.70
2019-06-10T22:03:58.306Z,83.50
2019-06-10T22:06:22.757Z,84.00
2019-06-10T22:08:54.470Z,83.30
2019-06-10T22:11:23.420Z,83.70
2019-06-10T22:13:53.858Z,84.30
2019-06-10T22:16:22.635Z,84.70
2019-06-10T22:18:52.620Z,85.90
2019-06-10T22:21:22.646Z,85.00
2019-06-10T22:23:53.631Z,85.10
2019-06-10T22:26:22.506Z,85.40
2019-06-10T22:28:53.854Z,85.20
2019-06-10T22:31:23.701Z,84.40
2019-06-10T22:33:54.277Z,84.10
2019-06-10T22:36:23.223Z,84.40
2019-06-10T22:38:55.585Z,84.80
2019-06-10T22:41:22.658Z,84.30
2019-06-10T22:43:52.150Z,83.40
2019-06-10T22:46:23.204Z,83.30
2019-06-10T22:48:53.258Z,83.90
2019-06-10T22:51:22.686Z,84.30
2019-06-10T22:53:54.721Z,84.30
2019-06-10T22:56:21.641Z,85.30
2019-06-10T22:58:52.687Z,84.90
